createdAt,value
2018-06-08T00:01:05.045Z,68.54
2018-06-08T00:05:59.602Z,69.29
2018-06-08T00:10:54.550Z,69.45
2018-06-08T00:15:49.115Z,69.65
2018-06-08T00:20:43.681Z,69.60
2018-06-08T00:25:38.230Z,68.20
2018-06-08T00:30:32.774Z,71.63
2018-06-08T00:35:27.375Z,70.41
2018-06-08T00:40:21.930Z,69.38
2018-06-08T00:45:16.493Z,70.93
2018-06-08T00:50:11.061Z,70.27
2018-06-08T00:55:05.882Z,70.48
2018-06-08T01:00:00.411Z,69.25
2018-06-08T01:04:54.996Z,70.14
2018-06-08T01:09:49.530Z,70.45
2018-06-08T01:14:44.109Z,69.95
2018-06-08T01:19:38.831Z,70.24
2018-06-08T01:24:33.995Z,71.02
2018-06-08T01:29:28.550Z,71.41
2018-06-08T01:34:23.132Z,70.13
2018-06-08T01:39:17.697Z,70.72
2018-06-08T01:44:12.258Z,71.22
2018-06-08T01:49:06.882Z,71.47
2018-06-08T01:54:01.404Z,71.79
2018-06-08T01:58:56.007Z,71.59
2018-06-08T02:03:50.557Z,72.14
2018-06-08T02:08:45.070Z,72.07
2018-06-08T02:13:39.602Z,71.63
2018-06-08T02:18:34.123Z,70.86
2018-06-08T02:23:28.709Z,71.67
2018-06-08T02:28:23.272Z,71.25
2018-06-08T02:33:17.814Z,72.07
2018-06-08T02:38:12.397Z,70.95
2018-06-08T02:43:06.941Z,71.36
2018-06-08T02:48:01.504Z,71.59
2018-06-08T02:52:56.031Z,72.80
2018-06-08T02:57:50.586Z,73.54
2018-06-08T03:02:45.120Z,72.44
2018-06-08T03:07:39.661Z,72.08
2018-06-08T03:12:34.210Z,74.00
2018-06-08T03:17:28.769Z,73.34
2018-06-08T03:22:23.304Z,73.18
2018-06-08T03:27:17.935Z,73.46
2018-06-08T03:32:12.487Z,72.73
2018-06-08T03:37:07.047Z,73.08
2018-06-08T03:42:01.570Z,74.17
2018-06-08T03:46:56.119Z,73.07
2018-06-08T03:51:50.661Z,72.88
2018-06-08T03:56:48.526Z,73.00
2018-06-08T04:01:43.077Z,73.31
2018-06-08T04:06:37.683Z,72.58
2018-06-08T04:11:32.329Z,70.55
2018-06-08T04:16:26.889Z,70.03
2018-06-08T04:21:21.475Z,70.47
2018-06-08T04:26:16.059Z,69.92
2018-06-08T04:31:10.623Z,68.89
2018-06-08T04:36:06.524Z,66.22
2018-06-08T04:41:01.161Z,68.14
2018-06-08T04:45:55.703Z,69.15
2018-06-08T04:50:50.307Z,65.68
2018-06-08T04:55:44.537Z,64.34
2018-06-08T05:00:39.083Z,63.51
2018-06-08T05:05:33.619Z,64.44
2018-06-08T05:10:28.167Z,63.59
2018-06-08T05:15:22.703Z,65.01
2018-06-08T05:20:17.279Z,67.24
2018-06-08T05:25:11.822Z,67.39
2018-06-08T05:30:13.519Z,69.08
2018-06-08T05:35:08.107Z,68.08
2018-06-08T05:40:02.678Z,67.74
2018-06-08T05:44:56.916Z,66.97
2018-06-08T05:49:51.459Z,67.75
2018-06-08T05:54:46.012Z,65.45
2018-06-08T05:59:40.577Z,67.97
2018-06-08T06:04:35.103Z,67.44
2018-06-08T06:09:29.665Z,67.49
2018-06-08T06:14:24.216Z,66.10
2018-06-08T06:19:18.738Z,65.70
2018-06-08T06:24:13.286Z,64.53
2018-06-08T06:34:01.343Z,59.81
2018-06-08T06:38:55.942Z,61.88
2018-06-08T06:43:50.511Z,61.65
2018-06-08T06:48:45.231Z,61.35
2018-06-08T06:53:39.828Z,60.37
2018-06-08T06:58:34.431Z,60.14
2018-06-08T07:03:29.028Z,61.21
2018-06-08T07:08:23.559Z,62.42
2018-06-08T07:13:18.074Z,61.62
2018-06-08T07:18:12.641Z,59.28
2018-06-08T07:23:07.174Z,61.49
2018-06-08T07:28:01.759Z,58.31
2018-06-08T07:32:56.286Z,57.19
2018-06-08T07:37:50.864Z,57.79
2018-06-08T07:42:45.416Z,55.06
2018-06-08T07:47:40.008Z,57.33
2018-06-08T07:52:34.593Z,58.83
2018-06-08T07:57:29.165Z,58.12
2018-06-08T08:02:23.710Z,57.56
2018-06-08T08:07:18.475Z,57.56
2018-06-08T08:12:12.986Z,57.87
2018-06-08T08:17:07.566Z,58.52
2018-06-08T08:22:02.144Z,57.88
2018-06-08T08:26:56.633Z,58.73
2018-06-08T08:31:51.135Z,57.55
2018-06-08T08:36:45.716Z,55.40
2018-06-08T08:41:40.284Z,56.06
2018-06-08T08:46:34.870Z,53.05
2018-06-08T08:51:29.484Z,53.32
2018-06-08T08:56:23.955Z,55.25
2018-06-08T09:01:18.490Z,55.60
2018-06-08T09:06:13.023Z,56.97
2018-06-08T09:11:07.609Z,55.54
2018-06-08T09:16:02.177Z,52.93
2018-06-08T09:20:56.662Z,55.05
2018-06-08T09:25:51.181Z,51.80
2018-06-08T09:30:45.676Z,50.70
2018-06-08T09:35:40.180Z,49.74
2018-06-08T09:40:34.697Z,51.22
2018-06-08T09:45:29.225Z,50.55
2018-06-08T09:50:24.826Z,50.44
2018-06-08T09:55:19.385Z,50.68
2018-06-08T10:00:18.003Z,50.08
2018-06-08T10:05:12.592Z,48.07
2018-06-08T10:10:07.105Z,50.21
2018-06-08T10:15:01.611Z,46.95
2018-06-08T10:19:56.117Z,46.89
2018-06-08T10:24:50.651Z,52.52
2018-06-08T10:29:45.202Z,48.06
2018-06-08T10:34:39.710Z,46.61
2018-06-08T10:39:34.220Z,47.52
2018-06-08T10:44:28.754Z,44.42
2018-06-08T10:49:23.314Z,46.97
2018-06-08T10:54:17.861Z,48.63
2018-06-08T10:59:12.364Z,45.36
2018-06-08T11:04:06.985Z,46.97
2018-06-08T11:09:01.523Z,44.75
2018-06-08T11:13:56.085Z,46.54
2018-06-08T11:18:50.600Z,45.84
2018-06-08T11:23:45.145Z,41.74
2018-06-08T11:28:39.658Z,45.06
2018-06-08T11:33:34.197Z,45.77
2018-06-08T11:38:28.722Z,48.88
2018-06-08T11:43:23.214Z,47.24
2018-06-08T11:48:17.762Z,45.46
2018-06-08T11:53:12.298Z,45.54
2018-06-08T11:58:06.834Z,48.16
2018-06-08T12:03:01.367Z,47.49
2018-06-08T12:07:55.880Z,47.05
2018-06-08T12:12:50.388Z,45.35
2018-06-08T12:17:44.950Z,45.17
2018-06-08T12:22:39.561Z,44.02
2018-06-08T12:27:34.086Z,44.76
2018-06-08T12:32:28.643Z,44.08
2018-06-08T12:37:23.183Z,44.39
2018-06-08T12:42:17.727Z,44.34
2018-06-08T12:47:12.330Z,47.21
2018-06-08T12:52:06.914Z,46.04
2018-06-08T12:57:01.487Z,44.84
2018-06-08T13:01:56.064Z,47.39
2018-06-08T13:06:50.671Z,44.06
2018-06-08T13:11:45.243Z,42.65
2018-06-08T13:16:39.819Z,43.83
2018-06-08T13:21:34.451Z,43.75
2018-06-08T13:26:29.026Z,45.03
2018-06-08T13:31:23.574Z,44.10
2018-06-08T13:36:18.192Z,44.41
2018-06-08T13:41:12.764Z,44.83
2018-06-08T13:46:23.881Z,44.33
2018-06-08T13:51:18.542Z,42.78
2018-06-08T13:56:13.127Z,46.18
2018-06-08T14:01:07.734Z,43.98
2018-06-08T14:06:02.279Z,44.30
2018-06-08T14:10:56.839Z,42.65
2018-06-08T14:15:51.454Z,42.28
2018-06-08T14:20:46.001Z,44.80
2018-06-08T14:25:40.595Z,42.35
2018-06-08T14:30:35.202Z,40.94
2018-06-08T14:35:29.763Z,42.42
2018-06-08T14:40:24.335Z,43.27
2018-06-08T14:45:19.009Z,52.29
2018-06-08T14:50:13.615Z,61.23
2018-06-08T14:55:08.268Z,61.65
2018-06-08T15:00:02.908Z,64.45
2018-06-08T15:04:57.567Z,70.84
2018-06-08T15:09:52.286Z,71.20
2018-06-08T15:14:46.854Z,68.93
2018-06-08T15:19:41.585Z,68.94
2018-06-08T15:24:38.475Z,69.16
2018-06-08T15:29:33.030Z,69.27
2018-06-08T15:34:27.696Z,66.73
2018-06-08T15:39:22.524Z,69.55
2018-06-08T15:44:17.150Z,68.08
2018-06-08T15:49:11.787Z,70.00
2018-06-08T15:54:06.389Z,71.22
2018-06-08T15:59:01.002Z,72.27
2018-06-08T16:03:55.684Z,72.24
2018-06-08T16:08:50.420Z,74.91
2018-06-08T16:13:46.059Z,76.87
2018-06-08T16:18:40.850Z,74.50
2018-06-08T16:23:35.485Z,76.39
2018-06-08T16:28:30.173Z,78.99
2018-06-08T16:33:24.827Z,78.35
2018-06-08T16:38:19.515Z,78.90
2018-06-08T16:43:14.266Z,77.79
2018-06-08T16:48:09.058Z,77.30
2018-06-08T16:53:04.015Z,76.27
2018-06-08T16:57:58.854Z,80.47
2018-06-08T17:02:53.738Z,75.98
2018-06-08T17:07:48.632Z,77.86
2018-06-08T17:12:43.648Z,76.64
2018-06-08T17:17:38.689Z,79.79
2018-06-08T17:22:33.697Z,78.89
2018-06-08T17:27:31.869Z,81.76
2018-06-08T17:32:27.102Z,82.56
2018-06-08T17:37:22.680Z,82.57
2018-06-08T17:42:46.132Z,83.16
2018-06-08T17:48:04.794Z,86.04
2018-06-08T17:52:59.965Z,84.13
2018-06-08T17:58:01.707Z,84.26
2018-06-08T18:02:56.938Z,85.63
2018-06-08T18:07:52.098Z,84.73
2018-06-08T18:12:47.093Z,83.29
2018-06-08T18:18:06.298Z,83.09
2018-06-08T18:23:01.551Z,85.08
2018-06-08T18:27:57.033Z,85.07
2018-06-08T18:33:05.504Z,83.94
2018-06-08T18:38:05.169Z,85.21
2018-06-08T18:43:16.809Z,84.35
2018-06-08T18:53:36.296Z,82.83
2018-06-08T18:58:31.535Z,80.95
2018-06-08T19:03:32.616Z,82.96
2018-06-08T19:08:42.463Z,84.38
2018-06-08T19:13:41.977Z,84.84
2018-06-08T19:18:37.104Z,83.66
2018-06-08T19:23:32.272Z,82.07
2018-06-08T19:28:27.352Z,81.61
2018-06-08T19:33:22.659Z,82.65
2018-06-08T19:38:17.875Z,82.32
2018-06-08T19:43:12.995Z,83.06
2018-06-08T19:48:09.483Z,82.93
2018-06-08T19:53:04.649Z,82.28
2018-06-08T19:57:59.885Z,82.17
2018-06-08T20:02:54.962Z,83.45
2018-06-08T20:07:50.136Z,82.65
2018-06-08T20:12:45.477Z,82.56
2018-06-08T20:17:40.648Z,82.50
2018-06-08T20:22:35.707Z,81.46
2018-06-08T20:27:32.064Z,82.48
2018-06-08T20:32:26.969Z,82.55
2018-06-08T20:37:21.926Z,83.08
2018-06-08T20:42:17.087Z,82.84
2018-06-08T20:47:11.872Z,80.39
2018-06-08T20:52:06.936Z,81.31
2018-06-08T20:57:19.244Z,81.06
2018-06-08T21:02:14.308Z,80.59
2018-06-08T21:07:09.104Z,81.15
2018-06-08T21:12:04.140Z,80.95
2018-06-08T21:16:59.076Z,80.39
2018-06-08T21:21:54.028Z,81.09
2018-06-08T21:26:49.031Z,80.79
2018-06-08T21:31:44.150Z,81.73
2018-06-08T21:36:54.562Z,79.67
2018-06-08T21:41:49.631Z,79.64
2018-06-08T21:46:44.549Z,80.75
2018-06-08T21:51:39.542Z,79.90
2018-06-08T21:56:34.466Z,80.53
2018-06-08T22:01:29.575Z,80.74
2018-06-08T22:11:49.468Z,80.82
2018-06-08T22:16:44.589Z,79.90
2018-06-08T22:21:39.502Z,80.44
2018-06-08T22:26:34.503Z,81.21
2018-06-08T22:31:29.608Z,81.37
2018-06-08T22:36:25.740Z,80.86
2018-06-08T22:41:24.516Z,81.20
2018-06-08T22:51:38.848Z,80.26
2018-06-08T22:56:33.985Z,81.04
2018-06-08T23:01:28.914Z,80.45
2018-06-08T23:06:23.804Z,81.03
2018-06-08T23:11:18.829Z,80.59
2018-06-08T23:16:13.764Z,81.37
2018-06-08T23:21:08.720Z,79.71
2018-06-08T23:26:03.812Z,80.23
2018-06-08T23:30:58.835Z,80.95
2018-06-08T23:35:53.859Z,80.97
2018-06-08T23:40:48.869Z,80.18
2018-06-08T23:45:43.842Z,80.89
2018-06-08T23:50:38.916Z,81.40
2018-06-08T23:55:33.831Z,81.95
